createdAt,value
2019-03-02T00:03:56.366Z,19.13
2019-03-02T00:09:00.072Z,20.20
2019-03-02T00:14:04.514Z,20.63
2019-03-02T00:19:07.990Z,20.80
2019-03-02T00:24:11.448Z,20.53
2019-03-02T00:29:14.526Z,22.20
2019-03-02T00:34:17.608Z,21.03
2019-03-02T00:39:21.273Z,21.27
2019-03-02T00:44:24.365Z,21.40
2019-03-02T00:49:27.491Z,21.57
2019-03-02T00:54:31.134Z,21.60
2019-03-02T00:59:35.824Z,20.87
2019-03-02T01:04:39.061Z,21.03
2019-03-02T01:09:43.611Z,20.80
2019-03-02T01:14:46.942Z,21.00
2019-03-02T01:19:52.571Z,20.83
2019-03-02T01:24:55.619Z,21.30
2019-03-02T01:29:59.315Z,20.60
2019-03-02T01:35:02.404Z,19.92
2019-03-02T01:40:07.696Z,19.00
2019-03-02T01:45:12.568Z,19.50
2019-03-02T01:50:17.118Z,19.20
2019-03-02T01:55:20.500Z,19.37
2019-03-02T02:00:27.107Z,19.90
2019-03-02T02:05:31.957Z,20.83
2019-03-02T02:10:35.646Z,21.73
2019-03-02T02:15:39.302Z,20.50
2019-03-02T02:20:42.694Z,20.47
2019-03-02T02:25:46.125Z,20.97
2019-03-02T02:30:49.252Z,19.20
2019-03-02T02:35:52.568Z,18.70
2019-03-02T02:40:55.651Z,18.87
2019-03-02T02:45:58.778Z,19.60
2019-03-02T02:51:04.314Z,20.40
2019-03-02T02:56:07.522Z,19.47
2019-03-02T03:01:10.596Z,17.97
2019-03-02T03:06:13.683Z,18.27
2019-03-02T03:11:18.893Z,18.17
2019-03-02T03:16:22.300Z,18.50
2019-03-02T03:21:27.791Z,18.50
2019-03-02T03:26:34.932Z,17.07
2019-03-02T03:31:35.982Z,17.93
2019-03-02T03:36:39.343Z,18.40
2019-03-02T03:41:44.761Z,19.33
2019-03-02T03:46:47.574Z,18.87
2019-03-02T03:51:50.946Z,18.07
2019-03-02T03:56:54.063Z,19.10
2019-03-02T04:01:58.425Z,19.23
2019-03-02T04:07:06.437Z,19.97
2019-03-02T04:12:07.266Z,18.80
2019-03-02T04:17:10.715Z,18.43
2019-03-02T04:22:15.271Z,19.43
2019-03-02T04:27:19.010Z,18.90
2019-03-02T04:32:27.332Z,19.23
2019-03-02T04:37:28.230Z,18.77
2019-03-02T04:42:31.354Z,18.90
2019-03-02T04:47:34.731Z,19.33
2019-03-02T04:52:38.373Z,20.80
2019-03-02T04:57:43.174Z,19.90
2019-03-02T05:02:46.726Z,18.83
2019-03-02T05:07:49.804Z,20.23
2019-03-02T05:12:53.979Z,20.00
2019-03-02T05:17:58.028Z,20.37
2019-03-02T05:23:01.698Z,19.10
2019-03-02T05:28:07.344Z,19.73
2019-03-02T05:33:09.625Z,19.50
2019-03-02T05:38:15.170Z,19.67
2019-03-02T05:43:18.160Z,19.40
2019-03-02T05:48:22.494Z,19.93
2019-03-02T05:53:26.808Z,19.53
2019-03-02T05:58:30.885Z,20.63
2019-03-02T06:03:34.282Z,20.40
2019-03-02T06:08:37.672Z,21.20
2019-03-02T06:13:40.744Z,22.70
2019-03-02T06:18:45.351Z,21.13
2019-03-02T06:23:48.501Z,22.17
2019-03-02T06:28:54.542Z,21.37
2019-03-02T06:33:58.242Z,21.90
2019-03-02T06:39:03.850Z,21.43
2019-03-02T06:44:06.794Z,21.60
2019-03-02T06:49:09.881Z,21.27
2019-03-02T06:54:14.137Z,22.60
2019-03-02T06:59:17.438Z,22.00
2019-03-02T07:04:21.865Z,22.37
2019-03-02T07:09:25.626Z,24.10
2019-03-02T07:14:32.300Z,23.97
2019-03-02T07:19:38.505Z,24.07
2019-03-02T07:24:41.956Z,24.57
2019-03-02T07:29:45.038Z,24.50
2019-03-02T07:34:48.714Z,25.17
2019-03-02T07:39:51.786Z,24.90
2019-03-02T07:44:58.491Z,24.37
2019-03-02T07:50:00.902Z,25.27
2019-03-02T07:55:06.898Z,25.13
2019-03-02T08:00:15.526Z,24.10
2019-03-02T08:05:18.943Z,23.97
2019-03-02T08:10:22.654Z,24.67
2019-03-02T08:15:27.102Z,25.70
2019-03-02T08:20:30.814Z,24.37
2019-03-02T08:25:34.807Z,24.23
2019-03-02T08:30:38.167Z,22.03
2019-03-02T08:35:41.579Z,23.93
2019-03-02T08:40:44.986Z,23.33
2019-03-02T08:45:48.390Z,22.73
2019-03-02T08:50:53.151Z,22.23
2019-03-02T08:55:56.911Z,21.53
2019-03-02T09:01:00.296Z,22.13
2019-03-02T09:06:11.273Z,23.03
2019-03-02T09:11:08.850Z,21.40
2019-03-02T09:16:12.211Z,21.57
2019-03-02T09:21:15.290Z,23.03
2019-03-02T09:26:18.948Z,21.13
2019-03-02T09:31:26.233Z,22.47
2019-03-02T09:36:27.751Z,21.60
2019-03-02T09:41:31.858Z,22.47
2019-03-02T09:46:35.189Z,21.30
2019-03-02T09:51:38.839Z,22.13
2019-03-02T09:56:43.062Z,20.03
2019-03-02T10:01:48.020Z,22.17
2019-03-02T10:06:51.289Z,21.23
2019-03-02T10:11:54.657Z,20.67
2019-03-02T10:16:58.071Z,20.40
2019-03-02T10:22:01.489Z,20.10
2019-03-02T10:27:06.015Z,20.57
2019-03-02T10:32:09.552Z,21.00
2019-03-02T10:37:12.992Z,19.50
2019-03-02T10:42:16.382Z,20.40
2019-03-02T10:47:19.789Z,20.33
2019-03-02T10:52:23.511Z,19.53
2019-03-02T10:57:26.967Z,19.03
2019-03-02T11:02:30.340Z,20.20
2019-03-02T11:07:35.392Z,20.50
2019-03-02T11:12:43.581Z,20.60
2019-03-02T11:17:55.699Z,20.27
2019-03-02T11:23:02.335Z,20.07
2019-03-02T11:28:10.097Z,19.60
2019-03-02T11:33:27.451Z,19.30
2019-03-02T11:38:37.217Z,19.13
2019-03-02T11:43:44.040Z,19.53
2019-03-02T11:48:57.020Z,17.50
2019-03-02T11:53:57.926Z,16.17
2019-03-02T11:59:19.474Z,16.43
2019-03-02T12:04:40.906Z,16.37
2019-03-02T12:09:45.981Z,16.00
2019-03-02T12:14:51.045Z,17.37
2019-03-02T12:20:02.627Z,16.93
2019-03-02T12:25:31.031Z,16.60
2019-03-02T12:30:37.117Z,15.97
2019-03-02T12:35:51.215Z,15.93
2019-03-02T12:40:59.200Z,15.17
2019-03-02T12:46:05.066Z,15.87
2019-03-02T12:51:13.699Z,15.10
2019-03-02T12:56:18.767Z,13.60
2019-03-02T13:01:30.054Z,14.03
2019-03-02T13:06:51.730Z,13.77
2019-03-02T13:11:57.064Z,11.50
2019-03-02T13:17:03.620Z,12.37
2019-03-02T13:22:20.591Z,11.87
2019-03-02T13:27:25.934Z,12.10
2019-03-02T13:32:37.338Z,11.97
2019-03-02T13:37:53.034Z,12.53
2019-03-02T13:43:04.641Z,11.70
2019-03-02T13:48:09.973Z,11.27
2019-03-02T13:53:15.761Z,11.47
2019-03-02T13:58:36.654Z,10.83
2019-03-02T14:03:51.082Z,10.73
2019-03-02T14:09:16.155Z,11.10
2019-03-02T14:14:41.058Z,10.10
2019-03-02T14:19:49.363Z,10.63
2019-03-02T14:24:57.064Z,10.93
2019-03-02T14:30:04.886Z,10.13
2019-03-02T14:35:16.489Z,10.50
2019-03-02T14:40:20.019Z,10.43
2019-03-02T14:45:43.131Z,9.20
2019-03-02T14:51:03.070Z,8.07
2019-03-02T14:56:26.265Z,8.07
2019-03-02T15:01:47.794Z,6.43
2019-03-02T15:06:54.981Z,6.50
2019-03-02T15:11:59.553Z,6.17
2019-03-02T15:17:05.227Z,5.70
2019-03-02T15:22:09.961Z,4.83
2019-03-02T15:27:20.290Z,4.40
2019-03-02T15:32:43.341Z,4.10
2019-03-02T15:38:04.953Z,3.70
2019-03-02T15:43:17.689Z,4.00
2019-03-02T15:48:23.240Z,3.70
2019-03-02T15:53:29.842Z,3.57
2019-03-02T15:58:40.325Z,3.50
2019-03-02T16:03:57.303Z,3.37
2019-03-02T16:09:19.113Z,3.33
2019-03-02T16:14:42.195Z,3.10
2019-03-02T16:19:56.164Z,2.93
2019-03-02T16:25:13.586Z,3.00
2019-03-02T16:30:21.221Z,2.58
2019-03-02T16:35:42.481Z,2.50
2019-03-02T16:40:54.256Z,3.17
2019-03-02T16:45:59.437Z,3.07
2019-03-02T16:51:05.274Z,2.83
2019-03-02T16:56:22.782Z,2.70
2019-03-02T17:01:43.825Z,2.60
2019-03-02T17:06:49.202Z,2.67
2019-03-02T17:12:12.300Z,2.20
2019-03-02T17:17:23.938Z,2.43
2019-03-02T17:22:34.964Z,2.50
2019-03-02T17:27:39.977Z,2.50
2019-03-02T17:32:45.033Z,2.70
2019-03-02T17:38:08.146Z,2.67
2019-03-02T17:43:29.255Z,2.20
2019-03-02T17:48:37.238Z,2.30
2019-03-02T17:53:42.004Z,2.33
2019-03-02T17:58:47.312Z,2.50
2019-03-02T18:03:52.041Z,2.20
2019-03-02T18:09:09.189Z,2.10
2019-03-02T18:14:29.514Z,1.90
2019-03-02T18:19:32.585Z,1.87
2019-03-02T18:24:36.539Z,2.00
2019-03-02T18:29:39.631Z,1.80
2019-03-02T18:34:43.062Z,2.93
2019-03-02T18:39:46.692Z,2.40
2019-03-02T18:44:49.761Z,5.20
2019-03-02T18:49:55.064Z,2.60
2019-03-02T18:54:58.713Z,2.80
2019-03-02T19:00:02.102Z,2.40
2019-03-02T19:05:09.840Z,2.30
2019-03-02T19:10:12.891Z,3.83
2019-03-02T19:15:15.971Z,8.90
2019-03-02T19:20:19.616Z,7.47
2019-03-02T19:25:22.699Z,8.37
2019-03-02T19:30:26.349Z,3.17
2019-03-02T19:35:30.085Z,2.00
2019-03-02T19:40:33.420Z,1.50
2019-03-02T19:45:36.932Z,1.80
2019-03-02T19:50:40.645Z,1.90
2019-03-02T19:55:44.386Z,1.70
2019-03-02T20:00:47.516Z,1.90
2019-03-02T20:05:50.585Z,1.80
2019-03-02T20:10:54.306Z,2.00
2019-03-02T20:15:57.725Z,1.90
2019-03-02T20:21:00.820Z,2.00
2019-03-02T20:26:03.957Z,1.87
2019-03-02T20:31:07.028Z,1.90
2019-03-02T20:36:10.429Z,2.00
2019-03-02T20:41:13.917Z,2.17
2019-03-02T20:46:18.446Z,1.93
2019-03-02T20:51:21.860Z,2.20
2019-03-02T20:56:25.166Z,2.37
2019-03-02T21:01:28.239Z,2.90
2019-03-02T21:06:31.889Z,3.50
2019-03-02T21:11:35.550Z,3.00
2019-03-02T21:16:38.963Z,2.50
2019-03-02T21:21:42.525Z,2.63
2019-03-02T21:26:46.149Z,2.80
2019-03-02T21:31:49.460Z,2.50
2019-03-02T21:36:52.933Z,3.17
2019-03-02T21:41:56.573Z,3.10
2019-03-02T21:47:00.217Z,3.27
2019-03-02T21:52:03.632Z,3.30
2019-03-02T21:57:07.035Z,3.43
2019-03-02T22:02:10.367Z,3.70
2019-03-02T22:07:15.322Z,3.83
2019-03-02T22:12:18.731Z,4.00
2019-03-02T22:17:21.786Z,4.33
2019-03-02T22:22:24.873Z,3.90
2019-03-02T22:27:27.997Z,3.80
2019-03-02T22:32:31.318Z,4.07
2019-03-02T22:37:35.497Z,3.93
2019-03-02T22:42:38.900Z,3.50
2019-03-02T22:47:42.367Z,4.10
2019-03-02T22:52:45.769Z,3.93
2019-03-02T22:57:49.174Z,3.60
2019-03-02T23:02:52.090Z,3.73
2019-03-02T23:07:55.485Z,3.43
2019-03-02T23:12:58.797Z,3.73
2019-03-02T23:18:02.671Z,3.87
2019-03-02T23:23:06.333Z,4.23
2019-03-02T23:28:10.037Z,4.00
2019-03-02T23:33:13.100Z,4.10
2019-03-02T23:38:16.770Z,4.00
2019-03-02T23:43:20.315Z,4.30
2019-03-02T23:48:23.372Z,3.70
2019-03-02T23:53:26.763Z,3.50
2019-03-02T23:58:30.202Z,3.47
